sensor_id;sensor_type;location;lat;lon;timestamp;temperature;humidity
74488;DHT22;63019;51.080;13.642;2024-01-16T00:00:23;0.60;99.90
74488;DHT22;63019;51.080;13.642;2024-01-16T00:01:25;0.60;99.90
74488;DHT22;63019;51.080;13.642;2024-01-16T00:02:27;0.70;99.90
74488;DHT22;63019;51.080;13.642;2024-01-16T00:03:29;0.70;99.90
74488;DHT22;63019;51.080;13.642;2024-01-16T00:04:31;0.70;99.90
74488;DHT22;63019;51.080;13.642;2024-01-16T00:05:32;0.70;99.90
74488;DHT22;63019;51.080;13.642;2024-01-16T00:06:39;0.70;99.90
74488;DHT22;63019;51.080;13.642;2024-01-16T00:07:41;0.70;99.90
74488;DHT22;63019;51.080;13.642;2024-01-16T00:08:43;0.70;99.90
74488;DHT22;63019;51.080;13.642;2024-01-16T00:09:45;0.70;99.90
74488;DHT22;63019;51.080;13.642;2024-01-16T00:10:48;0.80;99.90
74488;DHT22;63019;51.080;13.642;2024-01-16T00:11:50;0.80;99.90
74488;DHT22;63019;51.080;13.642;2024-01-16T00:12:52;0.80;99.90
74488;DHT22;63019;51.080;13.642;2024-01-16T00:13:53;0.80;99.90
74488;DHT22;63019;51.080;13.642;2024-01-16T00:14:55;0.80;99.90
74488;DHT22;63019;51.080;13.642;2024-01-16T00:15:57;0.80;99.90
74488;DHT22;63019;51.080;13.642;2024-01-16T00:16:59;0.70;99.90
74488;DHT22;63019;51.080;13.642;2024-01-16T00:18:01;0.70;99.90
74488;DHT22;63019;51.080;13.642;2024-01-16T00:19:03;0.80;99.90
74488;DHT22;63019;51.080;13.642;2024-01-16T00:20:05;0.70;99.90
74488;DHT22;63019;51.080;13.642;2024-01-16T00:21:07;0.70;99.90
74488;DHT22;63019;51.080;13.642;2024-01-16T00:22:09;0.80;99.90
74488;DHT22;63019;51.080;13.642;2024-01-16T00:23:11;0.70;99.90
74488;DHT22;63019;51.080;13.642;2024-01-16T00:24:16;0.60;99.90
74488;DHT22;63019;51.080;13.642;2024-01-16T00:25:19;0.40;99.90
74488;DHT22;63019;51.080;13.642;2024-01-16T00:26:22;0.30;99.90
74488;DHT22;63019;51.080;13.642;2024-01-16T00:27:24;0.30;99.90
74488;DHT22;63019;51.080;13.642;2024-01-16T00:28:26;0.20;99.90
74488;DHT22;63019;51.080;13.642;2024-01-16T00:29:28;0.20;99.90
74488;DHT22;63019;51.080;13.642;2024-01-16T00:30:30;0.20;99.90
74488;DHT22;63019;51.080;13.642;2024-01-16T00:31:32;0.10;99.90
74488;DHT22;63019;51.080;13.642;2024-01-16T00:32:33;0.10;99.90
74488;DHT22;63019;51.080;13.642;2024-01-16T00:33:36;0.10;99.90
74488;DHT22;63019;51.080;13.642;2024-01-16T00:34:37;0.20;99.90
74488;DHT22;63019;51.080;13.642;2024-01-16T00:35:39;0.20;99.90
74488;DHT22;63019;51.080;13.642;2024-01-16T00:36:41;0.20;99.90
74488;DHT22;63019;51.080;13.642;2024-01-16T00:37:43;0.20;99.90
74488;DHT22;63019;51.080;13.642;2024-01-16T00:38:45;0.20;99.90
74488;DHT22;63019;51.080;13.642;2024-01-16T00:39:47;0.20;99.90
74488;DHT22;63019;51.080;13.642;2024-01-16T00:40:49;0.20;99.90
74488;DHT22;63019;51.080;13.642;2024-01-16T00:41:51;0.20;99.90
74488;DHT22;63019;51.080;13.642;2024-01-16T00:42:53;0.20;99.90
74488;DHT22;63019;51.080;13.642;2024-01-16T00:43:55;0.30;99.90
74488;DHT22;63019;51.080;13.642;2024-01-16T00:44:57;0.20;99.90
74488;DHT22;63019;51.080;13.642;2024-01-16T00:45:59;0.20;99.90
74488;DHT22;63019;51.080;13.642;2024-01-16T00:47:01;0.30;99.90
74488;DHT22;63019;51.080;13.642;2024-01-16T00:48:03;0.30;99.90
74488;DHT22;63019;51.080;13.642;2024-01-16T00:49:07;0.20;99.90
74488;DHT22;63019;51.080;13.642;2024-01-16T00:50:09;0.20;99.90
74488;DHT22;63019;51.080;13.642;2024-01-16T00:51:11;0.20;99.90
74488;DHT22;63019;51.080;13.642;2024-01-16T00:52:13;0.20;99.90
74488;DHT22;63019;51.080;13.642;2024-01-16T00:53:18;0.30;99.90
74488;DHT22;63019;51.080;13.642;2024-01-16T00:54:20;0.30;99.90
74488;DHT22;63019;51.080;13.642;2024-01-16T00:55:22;0.30;99.90
74488;DHT22;63019;51.080;13.642;2024-01-16T00:56:24;0.30;99.90
74488;DHT22;63019;51.080;13.642;2024-01-16T00:57:28;0.30;99.90
74488;DHT22;63019;51.080;13.642;2024-01-16T00:58:30;0.30;99.90
74488;DHT22;63019;51.080;13.642;2024-01-16T00:59:32;0.30;99.90
74488;DHT22;63019;51.080;13.642;2024-01-16T01:00:34;0.30;99.90
74488;DHT22;63019;51.080;13.642;2024-01-16T01:01:38;0.30;99.90
74488;DHT22;63019;51.080;13.642;2024-01-16T01:02:40;0.30;99.90
74488;DHT22;63019;51.080;13.642;2024-01-16T01:03:42;0.30;99.90
74488;DHT22;63019;51.080;13.642;2024-01-16T01:04:44;0.40;99.90
74488;DHT22;63019;51.080;13.642;2024-01-16T01:05:46;0.30;99.90
74488;DHT22;63019;51.080;13.642;2024-01-16T01:06:49;0.40;99.90
74488;DHT22;63019;51.080;13.642;2024-01-16T01:07:52;0.40;99.90
74488;DHT22;63019;51.080;13.642;2024-01-16T01:08:53;0.40;99.90
74488;DHT22;63019;51.080;13.642;2024-01-16T01:09:55;0.40;99.90
74488;DHT22;63019;51.080;13.642;2024-01-16T01:10:57;0.40;99.90
74488;DHT22;63019;51.080;13.642;2024-01-16T01:12:00;0.50;99.90
74488;DHT22;63019;51.080;13.642;2024-01-16T01:13:04;0.50;99.90
74488;DHT22;63019;51.080;13.642;2024-01-16T01:14:07;0.50;99.90
74488;DHT22;63019;51.080;13.642;2024-01-16T01:15:10;0.50;99.90
74488;DHT22;63019;51.080;13.642;2024-01-16T01:16:13;0.50;99.90
74488;DHT22;63019;51.080;13.642;2024-01-16T01:17:15;0.50;99.90
74488;DHT22;63019;51.080;13.642;2024-01-16T01:18:18;0.40;99.90
74488;DHT22;63019;51.080;13.642;2024-01-16T01:19:20;0.40;99.90
74488;DHT22;63019;51.080;13.642;2024-01-16T01:20:22;0.40;99.90
74488;DHT22;63019;51.080;13.642;2024-01-16T01:21:24;0.40;99.90
74488;DHT22;63019;51.080;13.642;2024-01-16T01:22:26;0.40;99.90
74488;DHT22;63019;51.080;13.642;2024-01-16T01:23:28;0.40;99.90
74488;DHT22;63019;51.080;13.642;2024-01-16T01:24:29;0.40;99.90
74488;DHT22;63019;51.080;13.642;2024-01-16T01:25:31;0.40;99.90
74488;DHT22;63019;51.080;13.642;2024-01-16T01:26:33;0.40;99.90
74488;DHT22;63019;51.080;13.642;2024-01-16T01:27:36;0.30;99.90
74488;DHT22;63019;51.080;13.642;2024-01-16T01:28:37;0.30;99.90
74488;DHT22;63019;51.080;13.642;2024-01-16T01:29:41;0.30;99.90
74488;DHT22;63019;51.080;13.642;2024-01-16T01:30:43;0.30;99.90
74488;DHT22;63019;51.080;13.642;2024-01-16T01:31:46;0.20;99.90
74488;DHT22;63019;51.080;13.642;2024-01-16T01:32:50;0.20;99.90
74488;DHT22;63019;51.080;13.642;2024-01-16T01:33:52;0.20;99.90
74488;DHT22;63019;51.080;13.642;2024-01-16T01:34:54;0.20;99.90
74488;DHT22;63019;51.080;13.642;2024-01-16T01:35:56;0.20;99.90
74488;DHT22;63019;51.080;13.642;2024-01-16T01:36:59;0.20;99.90
74488;DHT22;63019;51.080;13.642;2024-01-16T01:38:01;0.30;99.90
74488;DHT22;63019;51.080;13.642;2024-01-16T01:39:02;0.30;99.90
74488;DHT22;63019;51.080;13.642;2024-01-16T01:40:05;0.30;99.90
74488;DHT22;63019;51.080;13.642;2024-01-16T01:41:07;0.30;99.90
74488;DHT22;63019;51.080;13.642;2024-01-16T01:42:09;0.20;99.90
74488;DHT22;63019;51.080;13.642;2024-01-16T01:43:24;0.20;99.90
74488;DHT22;63019;51.080;13.642;2024-01-16T01:44:26;0.20;99.90
74488;DHT22;63019;51.080;13.642;2024-01-16T01:45:28;0.20;99.90
74488;DHT22;63019;51.080;13.642;2024-01-16T01:46:32;0.30;99.90
74488;DHT22;63019;51.080;13.642;2024-01-16T01:47:39;0.20;99.90
74488;DHT22;63019;51.080;13.642;2024-01-16T01:48:42;0.30;99.90
74488;DHT22;63019;51.080;13.642;2024-01-16T01:49:44;0.30;99.90
74488;DHT22;63019;51.080;13.642;2024-01-16T01:50:46;0.30;99.90
74488;DHT22;63019;51.080;13.642;2024-01-16T01:51:49;0.30;99.90
74488;DHT22;63019;51.080;13.642;2024-01-16T01:52:53;0.30;99.90
74488;DHT22;63019;51.080;13.642;2024-01-16T01:54:01;0.30;99.90
74488;DHT22;63019;51.080;13.642;2024-01-16T01:55:03;0.40;99.90
74488;DHT22;63019;51.080;13.642;2024-01-16T01:56:11;0.40;99.90
74488;DHT22;63019;51.080;13.642;2024-01-16T01:57:14;0.40;99.90
74488;DHT22;63019;51.080;13.642;2024-01-16T01:58:16;0.50;99.90
74488;DHT22;63019;51.080;13.642;2024-01-16T01:59:18;0.50;99.90
74488;DHT22;63019;51.080;13.642;2024-01-16T02:00:21;0.50;99.90
74488;DHT22;63019;51.080;13.642;2024-01-16T02:01:24;0.50;99.90
74488;DHT22;63019;51.080;13.642;2024-01-16T02:02:27;0.50;99.90
74488;DHT22;63019;51.080;13.642;2024-01-16T02:03:29;0.50;99.90
74488;DHT22;63019;51.080;13.642;2024-01-16T02:04:34;0.60;99.90
74488;DHT22;63019;51.080;13.642;2024-01-16T02:05:38;0.60;99.90
74488;DHT22;63019;51.080;13.642;2024-01-16T02:06:44;0.60;99.90
74488;DHT22;63019;51.080;13.642;2024-01-16T02:07:46;0.60;99.90
74488;DHT22;63019;51.080;13.642;2024-01-16T02:08:48;0.60;99.90
74488;DHT22;63019;51.080;13.642;2024-01-16T02:09:50;0.60;99.90
74488;DHT22;63019;51.080;13.642;2024-01-16T02:10:52;0.60;99.90
74488;DHT22;63019;51.080;13.642;2024-01-16T02:11:54;0.60;99.90
74488;DHT22;63019;51.080;13.642;2024-01-16T02:12:56;0.60;99.90
74488;DHT22;63019;51.080;13.642;2024-01-16T02:13:58;0.60;99.90
74488;DHT22;63019;51.080;13.642;2024-01-16T02:15:00;0.60;99.90
74488;DHT22;63019;51.080;13.642;2024-01-16T02:16:02;0.60;99.90
74488;DHT22;63019;51.080;13.642;2024-01-16T02:17:05;0.60;99.90
74488;DHT22;63019;51.080;13.642;2024-01-16T02:18:07;0.60;99.90
74488;DHT22;63019;51.080;13.642;2024-01-16T02:19:09;0.50;99.90
74488;DHT22;63019;51.080;13.642;2024-01-16T02:20:12;0.50;99.90
74488;DHT22;63019;51.080;13.642;2024-01-16T02:21:28;0.60;99.90
74488;DHT22;63019;51.080;13.642;2024-01-16T02:22:31;0.50;99.90
74488;DHT22;63019;51.080;13.642;2024-01-16T02:23:35;0.50;99.90
74488;DHT22;63019;51.080;13.642;2024-01-16T02:24:37;0.50;99.90
74488;DHT22;63019;51.080;13.642;2024-01-16T02:25:43;0.50;99.90
74488;DHT22;63019;51.080;13.642;2024-01-16T02:26:49;0.50;99.90
74488;DHT22;63019;51.080;13.642;2024-01-16T02:27:51;0.50;99.90
74488;DHT22;63019;51.080;13.642;2024-01-16T02:28:54;0.50;99.90
74488;DHT22;63019;51.080;13.642;2024-01-16T02:29:55;0.60;99.90
74488;DHT22;63019;51.080;13.642;2024-01-16T02:30:57;0.50;99.90
74488;DHT22;63019;51.080;13.642;2024-01-16T02:32:00;0.60;99.90
74488;DHT22;63019;51.080;13.642;2024-01-16T02:33:02;0.50;99.90
74488;DHT22;63019;51.080;13.642;2024-01-16T02:34:05;0.50;99.90
74488;DHT22;63019;51.080;13.642;2024-01-16T02:35:07;0.50;99.90
74488;DHT22;63019;51.080;13.642;2024-01-16T02:36:11;0.50;99.90
74488;DHT22;63019;51.080;13.642;2024-01-16T02:37:13;0.50;99.90
74488;DHT22;63019;51.080;13.642;2024-01-16T02:38:15;0.50;99.90
74488;DHT22;63019;51.080;13.642;2024-01-16T02:39:17;0.50;99.90
74488;DHT22;63019;51.080;13.642;2024-01-16T02:40:19;0.40;99.90
74488;DHT22;63019;51.080;13.642;2024-01-16T02:41:21;0.40;99.90
74488;DHT22;63019;51.080;13.642;2024-01-16T02:42:23;0.40;99.90
74488;DHT22;63019;51.080;13.642;2024-01-16T02:43:25;0.40;99.90
74488;DHT22;63019;51.080;13.642;2024-01-16T02:44:28;0.40;99.90
74488;DHT22;63019;51.080;13.642;2024-01-16T02:45:30;0.30;99.90
74488;DHT22;63019;51.080;13.642;2024-01-16T02:46:31;0.30;99.90
74488;DHT22;63019;51.080;13.642;2024-01-16T02:47:34;0.30;99.90
74488;DHT22;63019;51.080;13.642;2024-01-16T02:48:38;0.30;99.90
74488;DHT22;63019;51.080;13.642;2024-01-16T02:49:40;0.30;99.90
74488;DHT22;63019;51.080;13.642;2024-01-16T02:50:42;0.40;99.90
74488;DHT22;63019;51.080;13.642;2024-01-16T02:51:44;0.40;99.90
74488;DHT22;63019;51.080;13.642;2024-01-16T02:52:46;0.40;99.90
74488;DHT22;63019;51.080;13.642;2024-01-16T02:53:48;0.40;99.90
74488;DHT22;63019;51.080;13.642;2024-01-16T02:54:54;0.40;99.90
74488;DHT22;63019;51.080;13.642;2024-01-16T02:55:58;0.40;99.90
74488;DHT22;63019;51.080;13.642;2024-01-16T02:57:01;0.50;99.90
74488;DHT22;63019;51.080;13.642;2024-01-16T02:58:05;0.40;99.90
74488;DHT22;63019;51.080;13.642;2024-01-16T02:59:07;0.50;99.90
74488;DHT22;63019;51.080;13.642;2024-01-16T03:00:09;0.50;99.90
74488;DHT22;63019;51.080;13.642;2024-01-16T03:01:11;0.50;99.90
74488;DHT22;63019;51.080;13.642;2024-01-16T03:02:14;0.50;99.90
74488;DHT22;63019;51.080;13.642;2024-01-16T03:03:16;0.60;99.90
74488;DHT22;63019;51.080;13.642;2024-01-16T03:04:18;0.60;99.90
74488;DHT22;63019;51.080;13.642;2024-01-16T03:05:20;0.60;99.90
74488;DHT22;63019;51.080;13.642;2024-01-16T03:06:25;0.60;99.90
74488;DHT22;63019;51.080;13.642;2024-01-16T03:07:27;0.60;99.90
74488;DHT22;63019;51.080;13.642;2024-01-16T03:08:29;0.70;99.90
74488;DHT22;63019;51.080;13.642;2024-01-16T03:09:31;0.70;99.90
74488;DHT22;63019;51.080;13.642;2024-01-16T03:10:33;0.70;99.90
74488;DHT22;63019;51.080;13.642;2024-01-16T03:11:35;0.70;99.90
74488;DHT22;63019;51.080;13.642;2024-01-16T03:12:37;0.70;99.90
74488;DHT22;63019;51.080;13.642;2024-01-16T03:13:39;0.80;99.90
74488;DHT22;63019;51.080;13.642;2024-01-16T03:14:41;0.70;99.90
74488;DHT22;63019;51.080;13.642;2024-01-16T03:15:43;0.70;99.90
74488;DHT22;63019;51.080;13.642;2024-01-16T03:16:44;0.70;99.90
74488;DHT22;63019;51.080;13.642;2024-01-16T03:17:47;0.80;99.90
74488;DHT22;63019;51.080;13.642;2024-01-16T03:18:49;0.80;99.90
74488;DHT22;63019;51.080;13.642;2024-01-16T03:19:51;0.80;99.90
74488;DHT22;63019;51.080;13.642;2024-01-16T03:20:53;0.80;99.90
74488;DHT22;63019;51.080;13.642;2024-01-16T03:21:55;0.80;99.90
74488;DHT22;63019;51.080;13.642;2024-01-16T03:22:57;0.80;99.90
74488;DHT22;63019;51.080;13.642;2024-01-16T03:23:59;0.80;99.90
74488;DHT22;63019;51.080;13.642;2024-01-16T03:25:01;0.80;99.90
74488;DHT22;63019;51.080;13.642;2024-01-16T03:26:04;0.90;99.90
74488;DHT22;63019;51.080;13.642;2024-01-16T03:27:06;0.80;99.90
74488;DHT22;63019;51.080;13.642;2024-01-16T03:28:07;0.80;99.90
74488;DHT22;63019;51.080;13.642;2024-01-16T03:29:10;0.80;99.90
74488;DHT22;63019;51.080;13.642;2024-01-16T03:30:12;0.90;99.90
74488;DHT22;63019;51.080;13.642;2024-01-16T03:31:15;0.90;99.90
74488;DHT22;63019;51.080;13.642;2024-01-16T03:32:17;0.90;99.90
74488;DHT22;63019;51.080;13.642;2024-01-16T03:33:19;0.90;99.90
74488;DHT22;63019;51.080;13.642;2024-01-16T03:34:21;0.90;99.90
74488;DHT22;63019;51.080;13.642;2024-01-16T03:35:23;0.80;99.90
74488;DHT22;63019;51.080;13.642;2024-01-16T03:36:24;0.80;99.90
74488;DHT22;63019;51.080;13.642;2024-01-16T03:37:34;0.90;99.90
74488;DHT22;63019;51.080;13.642;2024-01-16T03:38:36;0.80;99.90
74488;DHT22;63019;51.080;13.642;2024-01-16T03:39:38;0.80;99.90
74488;DHT22;63019;51.080;13.642;2024-01-16T03:40:40;0.70;99.90
74488;DHT22;63019;51.080;13.642;2024-01-16T03:41:42;0.70;99.90
74488;DHT22;63019;51.080;13.642;2024-01-16T03:42:44;0.70;99.90
74488;DHT22;63019;51.080;13.642;2024-01-16T03:43:46;0.60;99.90
74488;DHT22;63019;51.080;13.642;2024-01-16T03:44:48;0.60;99.90
74488;DHT22;63019;51.080;13.642;2024-01-16T03:45:50;0.60;99.90
74488;DHT22;63019;51.080;13.642;2024-01-16T03:46:51;0.50;99.90
74488;DHT22;63019;51.080;13.642;2024-01-16T03:47:53;0.50;99.90
74488;DHT22;63019;51.080;13.642;2024-01-16T03:48:55;0.50;99.90
74488;DHT22;63019;51.080;13.642;2024-01-16T03:49:57;0.50;99.90
74488;DHT22;63019;51.080;13.642;2024-01-16T03:50:59;0.40;99.90
74488;DHT22;63019;51.080;13.642;2024-01-16T03:52:00;0.50;99.90
74488;DHT22;63019;51.080;13.642;2024-01-16T03:53:03;0.40;99.90
74488;DHT22;63019;51.080;13.642;2024-01-16T03:54:12;0.40;99.90
74488;DHT22;63019;51.080;13.642;2024-01-16T03:55:14;0.40;99.90
74488;DHT22;63019;51.080;13.642;2024-01-16T03:56:16;0.40;99.90
74488;DHT22;63019;51.080;13.642;2024-01-16T03:57:18;0.40;99.90
74488;DHT22;63019;51.080;13.642;2024-01-16T03:58:20;0.40;99.90
74488;DHT22;63019;51.080;13.642;2024-01-16T03:59:22;0.40;99.90
74488;DHT22;63019;51.080;13.642;2024-01-16T04:00:25;0.40;99.90
74488;DHT22;63019;51.080;13.642;2024-01-16T04:01:34;0.40;99.90
74488;DHT22;63019;51.080;13.642;2024-01-16T04:02:44;0.30;99.90
74488;DHT22;63019;51.080;13.642;2024-01-16T04:03:48;0.30;99.90
74488;DHT22;63019;51.080;13.642;2024-01-16T04:04:58;0.40;99.90
74488;DHT22;63019;51.080;13.642;2024-01-16T04:06:18;0.40;99.90
74488;DHT22;63019;51.080;13.642;2024-01-16T04:07:23;0.40;99.90
74488;DHT22;63019;51.080;13.642;2024-01-16T04:08:29;0.40;99.90
74488;DHT22;63019;51.080;13.642;2024-01-16T04:09:32;0.40;99.90
74488;DHT22;63019;51.080;13.642;2024-01-16T04:10:34;0.40;99.90
74488;DHT22;63019;51.080;13.642;2024-01-16T04:11:39;0.40;99.90
74488;DHT22;63019;51.080;13.642;2024-01-16T04:12:44;0.40;99.90
74488;DHT22;63019;51.080;13.642;2024-01-16T04:13:46;0.40;99.90
74488;DHT22;63019;51.080;13.642;2024-01-16T04:14:49;0.40;99.90
74488;DHT22;63019;51.080;13.642;2024-01-16T04:15:51;0.30;99.90
74488;DHT22;63019;51.080;13.642;2024-01-16T04:16:54;0.30;99.90
74488;DHT22;63019;51.080;13.642;2024-01-16T04:17:55;0.30;99.90
74488;DHT22;63019;51.080;13.642;2024-01-16T04:18:57;0.20;99.90
74488;DHT22;63019;51.080;13.642;2024-01-16T04:20:00;0.20;99.90
74488;DHT22;63019;51.080;13.642;2024-01-16T04:21:02;0.20;99.90
74488;DHT22;63019;51.080;13.642;2024-01-16T04:22:03;0.20;99.90
74488;DHT22;63019;51.080;13.642;2024-01-16T04:23:06;0.20;99.90
74488;DHT22;63019;51.080;13.642;2024-01-16T04:24:08;0.20;99.90
74488;DHT22;63019;51.080;13.642;2024-01-16T04:25:10;0.20;99.90
74488;DHT22;63019;51.080;13.642;2024-01-16T04:26:12;0.30;99.90
74488;DHT22;63019;51.080;13.642;2024-01-16T04:27:14;0.30;99.90
74488;DHT22;63019;51.080;13.642;2024-01-16T04:28:16;0.30;99.90
74488;DHT22;63019;51.080;13.642;2024-01-16T04:29:18;0.30;99.90
74488;DHT22;63019;51.080;13.642;2024-01-16T04:30:20;0.40;99.90
74488;DHT22;63019;51.080;13.642;2024-01-16T04:31:21;0.40;99.90
74488;DHT22;63019;51.080;13.642;2024-01-16T04:32:24;0.40;99.90
74488;DHT22;63019;51.080;13.642;2024-01-16T04:33:26;0.50;99.90
74488;DHT22;63019;51.080;13.642;2024-01-16T04:34:28;0.50;99.90
74488;DHT22;63019;51.080;13.642;2024-01-16T04:35:30;0.50;99.90
74488;DHT22;63019;51.080;13.642;2024-01-16T04:36:33;0.50;99.90
74488;DHT22;63019;51.080;13.642;2024-01-16T04:37:35;0.60;99.90
74488;DHT22;63019;51.080;13.642;2024-01-16T04:38:37;0.60;99.90
74488;DHT22;63019;51.080;13.642;2024-01-16T04:39:39;0.60;99.90
74488;DHT22;63019;51.080;13.642;2024-01-16T04:40:41;0.60;99.90
74488;DHT22;63019;51.080;13.642;2024-01-16T04:41:42;0.60;99.90
74488;DHT22;63019;51.080;13.642;2024-01-16T04:42:44;0.60;99.90
74488;DHT22;63019;51.080;13.642;2024-01-16T04:43:46;0.60;99.90
74488;DHT22;63019;51.080;13.642;2024-01-16T04:44:48;0.70;99.90
74488;DHT22;63019;51.080;13.642;2024-01-16T04:45:50;0.70;99.90
74488;DHT22;63019;51.080;13.642;2024-01-16T04:46:52;0.70;99.90
74488;DHT22;63019;51.080;13.642;2024-01-16T04:47:54;0.70;99.90
74488;DHT22;63019;51.080;13.642;2024-01-16T04:48:56;0.70;99.90
74488;DHT22;63019;51.080;13.642;2024-01-16T04:49:58;0.70;99.90
74488;DHT22;63019;51.080;13.642;2024-01-16T04:51:00;0.80;99.90
74488;DHT22;63019;51.080;13.642;2024-01-16T04:52:02;0.80;99.90
74488;DHT22;63019;51.080;13.642;2024-01-16T04:53:07;0.80;99.90
74488;DHT22;63019;51.080;13.642;2024-01-16T04:54:10;0.80;99.90
74488;DHT22;63019;51.080;13.642;2024-01-16T04:55:13;0.80;99.90
74488;DHT22;63019;51.080;13.642;2024-01-16T04:56:15;0.80;99.90
74488;DHT22;63019;51.080;13.642;2024-01-16T04:57:17;0.80;99.90
74488;DHT22;63019;51.080;13.642;2024-01-16T04:58:29;0.80;99.90
74488;DHT22;63019;51.080;13.642;2024-01-16T04:59:31;0.90;99.90
74488;DHT22;63019;51.080;13.642;2024-01-16T05:00:34;0.90;99.90
74488;DHT22;63019;51.080;13.642;2024-01-16T05:01:36;0.90;99.90
74488;DHT22;63019;51.080;13.642;2024-01-16T05:02:37;0.90;99.90
74488;DHT22;63019;51.080;13.642;2024-01-16T05:03:39;0.90;99.90
74488;DHT22;63019;51.080;13.642;2024-01-16T05:04:41;0.90;99.90
74488;DHT22;63019;51.080;13.642;2024-01-16T05:05:43;0.90;99.90
74488;DHT22;63019;51.080;13.642;2024-01-16T05:06:52;0.90;99.90
74488;DHT22;63019;51.080;13.642;2024-01-16T05:07:55;0.90;99.90
74488;DHT22;63019;51.080;13.642;2024-01-16T05:08:57;0.90;99.90
74488;DHT22;63019;51.080;13.642;2024-01-16T05:09:59;0.90;99.90
74488;DHT22;63019;51.080;13.642;2024-01-16T05:11:01;0.90;99.90
74488;DHT22;63019;51.080;13.642;2024-01-16T05:12:03;0.90;99.90
74488;DHT22;63019;51.080;13.642;2024-01-16T05:13:05;0.90;99.90
74488;DHT22;63019;51.080;13.642;2024-01-16T05:14:10;0.90;99.90
74488;DHT22;63019;51.080;13.642;2024-01-16T05:15:13;0.90;99.90
74488;DHT22;63019;51.080;13.642;2024-01-16T05:16:16;0.90;99.90
74488;DHT22;63019;51.080;13.642;2024-01-16T05:17:19;0.90;99.90
74488;DHT22;63019;51.080;13.642;2024-01-16T05:18:21;0.90;99.90
74488;DHT22;63019;51.080;13.642;2024-01-16T05:19:32;0.90;99.90
74488;DHT22;63019;51.080;13.642;2024-01-16T05:20:34;0.90;99.90
74488;DHT22;63019;51.080;13.642;2024-01-16T05:21:36;0.90;99.90
74488;DHT22;63019;51.080;13.642;2024-01-16T05:22:38;0.90;99.90
74488;DHT22;63019;51.080;13.642;2024-01-16T05:23:40;0.90;99.90
74488;DHT22;63019;51.080;13.642;2024-01-16T05:24:43;0.90;99.90
74488;DHT22;63019;51.080;13.642;2024-01-16T05:25:45;0.90;99.90
74488;DHT22;63019;51.080;13.642;2024-01-16T05:26:49;0.90;99.90
74488;DHT22;63019;51.080;13.642;2024-01-16T05:27:51;0.90;99.90
74488;DHT22;63019;51.080;13.642;2024-01-16T05:28:53;0.90;99.90
74488;DHT22;63019;51.080;13.642;2024-01-16T05:29:55;0.90;99.90
74488;DHT22;63019;51.080;13.642;2024-01-16T05:30:57;0.90;99.90
74488;DHT22;63019;51.080;13.642;2024-01-16T05:32:06;0.90;99.90
74488;DHT22;63019;51.080;13.642;2024-01-16T05:33:08;0.90;99.90
74488;DHT22;63019;51.080;13.642;2024-01-16T05:34:11;0.90;99.90
74488;DHT22;63019;51.080;13.642;2024-01-16T05:35:13;0.90;99.90
74488;DHT22;63019;51.080;13.642;2024-01-16T05:36:15;0.80;99.90
74488;DHT22;63019;51.080;13.642;2024-01-16T05:37:18;0.80;99.90
74488;DHT22;63019;51.080;13.642;2024-01-16T05:38:21;0.80;99.90
74488;DHT22;63019;51.080;13.642;2024-01-16T05:39:23;0.80;99.90
74488;DHT22;63019;51.080;13.642;2024-01-16T05:40:33;0.80;99.90
74488;DHT22;63019;51.080;13.642;2024-01-16T05:41:35;0.80;99.90
74488;DHT22;63019;51.080;13.642;2024-01-16T05:42:38;0.80;99.90
74488;DHT22;63019;51.080;13.642;2024-01-16T05:43:47;0.80;99.90
74488;DHT22;63019;51.080;13.642;2024-01-16T05:44:56;0.80;99.90
74488;DHT22;63019;51.080;13.642;2024-01-16T05:45:58;0.80;99.90
74488;DHT22;63019;51.080;13.642;2024-01-16T05:47:00;0.80;99.90
74488;DHT22;63019;51.080;13.642;2024-01-16T05:48:02;0.80;99.90
74488;DHT22;63019;51.080;13.642;2024-01-16T05:49:04;0.80;99.90
74488;DHT22;63019;51.080;13.642;2024-01-16T05:50:08;0.80;99.90
74488;DHT22;63019;51.080;13.642;2024-01-16T05:51:17;0.80;99.90
74488;DHT22;63019;51.080;13.642;2024-01-16T05:52:57;0.80;99.90
74488;DHT22;63019;51.080;13.642;2024-01-16T05:53:59;0.80;99.90
74488;DHT22;63019;51.080;13.642;2024-01-16T05:55:03;0.80;99.90
74488;DHT22;63019;51.080;13.642;2024-01-16T05:56:08;0.80;99.90
74488;DHT22;63019;51.080;13.642;2024-01-16T05:57:11;0.80;99.90
74488;DHT22;63019;51.080;13.642;2024-01-16T05:58:12;0.80;99.90
74488;DHT22;63019;51.080;13.642;2024-01-16T05:59:16;0.70;99.90
74488;DHT22;63019;51.080;13.642;2024-01-16T06:00:18;0.70;99.90
74488;DHT22;63019;51.080;13.642;2024-01-16T06:01:20;0.70;99.90
74488;DHT22;63019;51.080;13.642;2024-01-16T06:02:22;0.70;99.90
74488;DHT22;63019;51.080;13.642;2024-01-16T06:03:26;0.70;99.90
74488;DHT22;63019;51.080;13.642;2024-01-16T06:04:28;0.70;99.90
74488;DHT22;63019;51.080;13.642;2024-01-16T06:05:30;0.70;99.90
74488;DHT22;63019;51.080;13.642;2024-01-16T06:06:58;0.70;99.90
74488;DHT22;63019;51.080;13.642;2024-01-16T06:08:01;0.70;99.90
74488;DHT22;63019;51.080;13.642;2024-01-16T06:09:05;0.70;99.90
74488;DHT22;63019;51.080;13.642;2024-01-16T06:10:07;0.60;99.90
74488;DHT22;63019;51.080;13.642;2024-01-16T06:11:09;0.50;99.90
74488;DHT22;63019;51.080;13.642;2024-01-16T06:12:15;0.50;99.90
74488;DHT22;63019;51.080;13.642;2024-01-16T06:13:20;0.40;99.90
74488;DHT22;63019;51.080;13.642;2024-01-16T06:14:23;0.30;99.90
74488;DHT22;63019;51.080;13.642;2024-01-16T06:15:28;0.30;99.90
74488;DHT22;63019;51.080;13.642;2024-01-16T06:16:29;0.30;99.90
74488;DHT22;63019;51.080;13.642;2024-01-16T06:17:35;0.30;99.90
74488;DHT22;63019;51.080;13.642;2024-01-16T06:18:37;0.30;99.90
74488;DHT22;63019;51.080;13.642;2024-01-16T06:20:12;0.30;99.90
74488;DHT22;63019;51.080;13.642;2024-01-16T06:22:02;0.30;99.90
74488;DHT22;63019;51.080;13.642;2024-01-16T06:23:04;0.30;99.90
74488;DHT22;63019;51.080;13.642;2024-01-16T06:24:07;0.40;99.90
74488;DHT22;63019;51.080;13.642;2024-01-16T06:25:21;0.40;99.90
74488;DHT22;63019;51.080;13.642;2024-01-16T06:26:24;0.40;99.90
74488;DHT22;63019;51.080;13.642;2024-01-16T06:27:41;0.40;99.90
74488;DHT22;63019;51.080;13.642;2024-01-16T06:28:42;0.40;99.90
74488;DHT22;63019;51.080;13.642;2024-01-16T06:29:45;0.40;99.90
74488;DHT22;63019;51.080;13.642;2024-01-16T06:30:47;0.40;99.90
74488;DHT22;63019;51.080;13.642;2024-01-16T06:31:49;0.40;99.90
74488;DHT22;63019;51.080;13.642;2024-01-16T06:32:51;0.40;99.90
74488;DHT22;63019;51.080;13.642;2024-01-16T06:33:54;0.40;99.90
74488;DHT22;63019;51.080;13.642;2024-01-16T06:34:56;0.40;99.90
74488;DHT22;63019;51.080;13.642;2024-01-16T06:35:58;0.40;99.90
74488;DHT22;63019;51.080;13.642;2024-01-16T06:37:00;0.40;99.90
74488;DHT22;63019;51.080;13.642;2024-01-16T06:38:02;0.50;99.90
74488;DHT22;63019;51.080;13.642;2024-01-16T06:39:04;0.40;99.90